Time;durP1;ratioP1;P1;durP2;ratioP2;P2;SDS_P1;SDS_P2;PMS_P1;PMS_P2;Temp;Humidity;BMP_temperature;BMP_pressure;BME280_temperature;BME280_humidity;BME280_pressure;Samples;Min_cycle;Max_cycle;Signal;HPM_P1;HPM_P2
2023/03/18 00:01:33;;;;;;;10.48;6.72;;;12.50;99.50;;;;;;6277599;22;20012;-90
2023/03/18 00:03:59;;;;;;;11.38;6.65;;;12.50;99.30;;;;;;6250699;22;20157;-90
2023/03/18 00:06:26;;;;;;;10.07;6.25;;;12.50;99.60;;;;;;6250610;22;20012;-90
2023/03/18 00:08:52;;;;;;;13.38;7.00;;;12.50;99.20;;;;;;6250838;22;20016;-90
2023/03/18 00:11:20;;;;;;;11.60;6.63;;;12.50;99.20;;;;;;6250564;22;20466;-89
2023/03/18 00:13:47;;;;;;;12.63;6.53;;;12.50;99.20;;;;;;6251005;22;20115;-91
2023/03/18 00:16:13;;;;;;;10.95;6.45;;;12.50;99.20;;;;;;6250007;22;20066;-90
2023/03/18 00:18:40;;;;;;;10.43;6.53;;;12.50;99.30;;;;;;6250659;22;20019;-90
2023/03/18 00:21:07;;;;;;;13.45;7.45;;;12.50;99.60;;;;;;6250342;22;20047;-90
2023/03/18 00:23:33;;;;;;;10.18;7.15;;;12.50;99.10;;;;;;6250582;22;20024;-90
2023/03/18 00:26:00;;;;;;;11.65;7.07;;;12.50;99.20;;;;;;6250569;22;20364;-90
2023/03/18 00:28:26;;;;;;;13.35;7.50;;;12.50;99.10;;;;;;6249519;22;20074;-90
2023/03/18 00:30:53;;;;;;;12.80;7.75;;;12.50;98.80;;;;;;6250671;22;20061;-90
2023/03/18 00:33:19;;;;;;;12.25;7.50;;;12.50;98.70;;;;;;6250408;22;20019;-90
2023/03/18 00:35:46;;;;;;;13.75;7.65;;;12.40;98.80;;;;;;6250082;22;20015;-90
2023/03/18 00:38:19;;;;;;;11.68;7.35;;;12.40;98.70;;;;;;6277535;22;20015;-91
2023/03/18 00:40:52;;;;;;;14.45;7.82;;;12.40;99.00;;;;;;6251305;22;20007;-91
2023/03/18 00:43:28;;;;;;;13.32;8.25;;;12.50;99.30;;;;;;6249811;22;20016;-90
2023/03/18 00:45:55;;;;;;;13.98;8.45;;;12.40;99.40;;;;;;6251134;22;20432;-90
2023/03/18 00:48:22;;;;;;;18.15;8.80;;;12.40;99.40;;;;;;6250486;22;20016;-90
2023/03/18 00:50:48;;;;;;;14.88;8.82;;;12.40;99.30;;;;;;6249942;22;20094;-89
2023/03/18 00:53:15;;;;;;;15.05;8.20;;;12.30;99.10;;;;;;6249807;22;20012;-90
2023/03/18 00:55:41;;;;;;;14.38;8.27;;;12.40;99.50;;;;;;6250706;22;20020;-90
2023/03/18 00:58:08;;;;;;;13.10;8.43;;;12.30;99.70;;;;;;6277548;22;20016;-90
2023/03/18 01:00:36;;;;;;;13.18;8.00;;;12.30;99.80;;;;;;6277744;22;20038;-89
2023/03/18 01:03:03;;;;;;;12.35;8.25;;;12.30;99.80;;;;;;6250087;22;20676;-90
2023/03/18 01:05:30;;;;;;;17.67;10.55;;;12.20;99.90;;;;;;6249537;22;20015;-90
2023/03/18 01:07:56;;;;;;;14.88;9.60;;;12.20;99.90;;;;;;6250874;22;20053;-90
2023/03/18 01:10:23;;;;;;;12.20;8.02;;;12.20;99.90;;;;;;6249721;22;20026;-91
2023/03/18 01:12:49;;;;;;;17.42;10.70;;;12.20;99.90;;;;;;6250162;22;20448;-90
2023/03/18 01:15:17;;;;;;;15.50;9.57;;;12.10;99.90;;;;;;6277446;22;20109;-90
2023/03/18 01:17:44;;;;;;;12.02;8.00;;;12.20;99.90;;;;;;6276850;22;20020;-90
2023/03/18 01:20:11;;;;;;;15.57;10.32;;;12.10;99.90;;;;;;6249686;22;20095;-90
2023/03/18 01:22:40;;;;;;;13.82;9.93;;;12.10;99.90;;;;;;6277562;22;20046;-89
2023/03/18 01:25:07;;;;;;;15.25;10.27;;;12.00;99.90;;;;;;6249341;22;20011;-90
2023/03/18 01:27:33;;;;;;;13.38;10.05;;;12.10;99.90;;;;;;6276955;22;20030;-90
2023/03/18 01:29:59;;;;;;;17.30;11.23;;;12.00;99.90;;;;;;6250293;22;20016;-90
2023/03/18 01:32:25;;;;;;;17.40;9.93;;;12.00;99.90;;;;;;6248674;22;20489;-89
2023/03/18 01:34:51;;;;;;;15.30;9.90;;;12.00;99.90;;;;;;6277468;22;20074;-90
2023/03/18 01:37:18;;;;;;;17.88;11.43;;;12.00;99.90;;;;;;6277487;22;20020;-91
2023/03/18 01:39:44;;;;;;;17.67;10.65;;;11.90;99.90;;;;;;6276347;22;20382;-90
2023/03/18 01:42:10;;;;;;;15.02;10.48;;;11.90;99.90;;;;;;6250457;22;20011;-91
2023/03/18 01:44:36;;;;;;;13.10;9.15;;;11.90;99.90;;;;;;6251227;22;20447;-91
2023/03/18 01:47:02;;;;;;;17.83;11.50;;;11.90;99.90;;;;;;6277413;22;20016;-90
2023/03/18 01:49:39;;;;;;;18.35;12.38;;;11.90;99.90;;;;;;6249514;22;20016;-89
2023/03/18 01:52:21;;;;;;;13.70;10.07;;;11.80;99.90;;;;;;6277842;22;20012;-90
2023/03/18 01:55:10;;;;;;;14.98;10.05;;;11.80;99.90;;;;;;6277897;22;20078;-90
2023/03/18 01:57:36;;;;;;;14.65;10.23;;;11.80;99.90;;;;;;6249923;22;20020;-91
2023/03/18 02:00:04;;;;;;;21.75;13.13;;;11.80;99.90;;;;;;6276329;22;20036;-89
2023/03/18 02:02:32;;;;;;;14.05;10.38;;;11.80;99.90;;;;;;6249941;22;20019;-91
2023/03/18 02:05:02;;;;;;;16.80;10.52;;;11.80;99.90;;;;;;6249871;22;20007;-90
2023/03/18 02:07:32;;;;;;;15.90;11.85;;;11.80;99.90;;;;;;6275752;22;20509;-90
2023/03/18 02:10:01;;;;;;;17.65;11.93;;;11.70;99.90;;;;;;6276956;22;20060;-91
2023/03/18 02:12:34;;;;;;;16.15;12.20;;;11.70;99.90;;;;;;6249544;22;20471;-90
2023/03/18 02:15:07;;;;;;;17.27;11.38;;;11.70;99.90;;;;;;6276710;22;20016;-90
2023/03/18 02:17:37;;;;;;;13.15;10.77;;;11.70;99.90;;;;;;6276897;22;20094;-91
2023/03/18 02:20:34;;;;;;;15.32;11.20;;;11.60;99.90;;;;;;6249805;22;20380;-90
2023/03/18 02:23:25;;;;;;;13.50;10.45;;;11.60;99.90;;;;;;6249753;22;20011;-91
2023/03/18 02:25:58;;;;;;;15.65;10.45;;;11.60;99.90;;;;;;6250613;22;20012;-90
2023/03/18 02:28:27;;;;;;;16.08;11.60;;;11.60;99.90;;;;;;6250110;22;20012;-90
2023/03/18 02:30:56;;;;;;;19.33;13.32;;;11.50;99.90;;;;;;6277074;22;20016;-91
2023/03/18 02:33:25;;;;;;;17.48;12.23;;;11.50;99.90;;;;;;6276702;22;20070;-90
2023/03/18 02:35:56;;;;;;;13.60;10.80;;;11.50;99.90;;;;;;6276366;22;20039;-91
2023/03/18 02:38:22;;;;;;;14.00;10.55;;;11.50;99.90;;;;;;6249334;22;20103;-91
2023/03/18 02:40:48;;;;;;;16.73;12.25;;;11.50;99.90;;;;;;6277322;22;20043;-90
2023/03/18 02:43:34;;;;;;;15.07;10.90;;;11.50;99.90;;;;;;6248400;22;20322;-91
2023/03/18 02:46:24;;;;;;;23.42;15.10;;;11.50;99.90;;;;;;6276243;22;20015;-91
2023/03/18 02:48:51;;;;;;;17.00;11.40;;;11.40;99.90;;;;;;6276860;22;20020;-91
2023/03/18 02:51:17;;;;;;;14.88;10.85;;;11.40;99.90;;;;;;6277096;22;20019;-90
2023/03/18 02:53:43;;;;;;;15.68;10.77;;;11.40;99.90;;;;;;6250076;22;20094;-91
2023/03/18 02:56:10;;;;;;;13.88;11.40;;;11.40;99.90;;;;;;6248893;22;20016;-91
2023/03/18 02:58:36;;;;;;;17.30;11.38;;;11.40;99.90;;;;;;6277085;22;20096;-91
2023/03/18 03:01:03;;;;;;;15.80;11.10;;;11.30;99.90;;;;;;6277239;22;20011;-90
2023/03/18 03:03:29;;;;;;;17.38;13.57;;;11.30;99.90;;;;;;6250921;22;20069;-91
2023/03/18 03:05:55;;;;;;;14.98;11.93;;;11.30;99.90;;;;;;6279049;22;20008;-91
2023/03/18 03:08:21;;;;;;;14.45;11.27;;;11.30;99.90;;;;;;6251686;22;20321;-91
2023/03/18 03:10:49;;;;;;;15.95;11.98;;;11.30;99.90;;;;;;6278061;22;20058;-91
2023/03/18 03:13:16;;;;;;;16.63;11.75;;;11.20;99.90;;;;;;6251101;22;20015;-91
2023/03/18 03:15:42;;;;;;;15.40;11.98;;;11.30;99.90;;;;;;6251428;22;20423;-91
2023/03/18 03:18:08;;;;;;;14.88;11.43;;;11.20;99.90;;;;;;6251026;22;20043;-91
2023/03/18 03:20:36;;;;;;;16.25;12.55;;;11.20;99.90;;;;;;6251618;22;20015;-91
2023/03/18 03:23:08;;;;;;;14.60;11.48;;;11.10;99.90;;;;;;6251830;22;20012;-91
2023/03/18 03:25:35;;;;;;;15.07;12.50;;;11.20;99.90;;;;;;6251263;22;20094;-91
2023/03/18 03:28:01;;;;;;;14.88;11.65;;;11.10;99.90;;;;;;6278989;22;20020;-91
2023/03/18 03:30:27;;;;;;;18.80;13.43;;;11.20;99.90;;;;;;6251056;22;20051;-90
2023/03/18 03:32:53;;;;;;;15.10;12.25;;;11.10;99.90;;;;;;6251059;22;20008;-91
2023/03/18 03:35:19;;;;;;;16.88;12.60;;;11.10;99.90;;;;;;6251395;22;20047;-90
2023/03/18 03:37:45;;;;;;;16.90;12.63;;;11.10;99.90;;;;;;6251008;22;20019;-91
2023/03/18 03:40:14;;;;;;;17.77;12.75;;;11.10;99.90;;;;;;6250449;22;20012;-91
2023/03/18 03:42:40;;;;;;;14.25;12.15;;;11.10;99.90;;;;;;6251207;22;20016;-91
2023/03/18 03:45:08;;;;;;;14.82;12.38;;;11.00;99.90;;;;;;6250474;22;20047;-90
2023/03/18 03:47:33;;;;;;;15.05;12.13;;;11.00;99.90;;;;;;6250252;22;20069;-90
2023/03/18 03:49:59;;;;;;;17.52;12.52;;;11.10;99.90;;;;;;6278935;22;20008;-91
2023/03/18 03:52:25;;;;;;;14.32;11.82;;;11.00;99.90;;;;;;6250467;22;20023;-91
2023/03/18 03:54:52;;;;;;;20.05;13.73;;;11.00;99.90;;;;;;6251206;22;20513;-91
2023/03/18 03:57:18;;;;;;;22.67;15.63;;;11.00;99.90;;;;;;6250736;22;20012;-91
2023/03/18 03:59:44;;;;;;;15.95;13.00;;;11.00;99.90;;;;;;6278180;22;20016;-91
2023/03/18 04:02:10;;;;;;;20.17;13.93;;;10.90;99.90;;;;;;6250701;22;20020;-91
2023/03/18 04:04:36;;;;;;;20.33;14.02;;;10.90;99.90;;;;;;6278386;22;20019;-89
2023/03/18 04:07:02;;;;;;;21.95;14.77;;;10.90;99.90;;;;;;6250635;22;20019;-91
2023/03/18 04:09:28;;;;;;;17.85;14.00;;;10.90;99.90;;;;;;6250832;22;20440;-90
2023/03/18 04:11:53;;;;;;;19.08;14.23;;;10.90;99.90;;;;;;6278485;22;20015;-91
2023/03/18 04:14:19;;;;;;;20.27;14.95;;;10.90;99.90;;;;;;6277450;22;20015;-90
2023/03/18 04:16:45;;;;;;;21.05;16.35;;;10.80;99.90;;;;;;6278495;22;20019;-91
2023/03/18 04:19:11;;;;;;;20.23;14.02;;;10.80;99.90;;;;;;6277894;22;20072;-90
2023/03/18 04:21:37;;;;;;;21.10;16.65;;;10.80;99.90;;;;;;6250674;22;20432;-91
2023/03/18 04:24:03;;;;;;;18.52;14.30;;;10.80;99.90;;;;;;6278090;22;20016;-91
2023/03/18 04:26:30;;;;;;;21.55;14.73;;;10.70;99.90;;;;;;6250187;22;20048;-89
2023/03/18 04:28:56;;;;;;;17.52;13.15;;;10.70;99.90;;;;;;6278171;22;20012;-90
2023/03/18 04:31:22;;;;;;;16.83;13.93;;;10.70;99.90;;;;;;6250332;22;20058;-90
2023/03/18 04:33:48;;;;;;;21.67;16.02;;;10.70;99.90;;;;;;6250692;22;20012;-90
2023/03/18 04:36:14;;;;;;;18.23;14.57;;;10.70;99.90;;;;;;6224453;22;20470;-90
2023/03/18 04:38:40;;;;;;;19.20;13.38;;;10.60;99.90;;;;;;6250494;22;20022;-90
2023/03/18 04:41:06;;;;;;;19.50;14.65;;;10.60;99.90;;;;;;6250101;22;20098;-90
2023/03/18 04:43:32;;;;;;;25.73;17.45;;;10.60;99.90;;;;;;6278029;22;20020;-90
2023/03/18 04:45:58;;;;;;;22.80;16.83;;;10.60;99.90;;;;;;6277973;22;20306;-90
2023/03/18 04:48:24;;;;;;;19.50;14.80;;;10.60;99.90;;;;;;6250295;22;20502;-91
2023/03/18 04:50:49;;;;;;;19.90;14.43;;;10.60;99.90;;;;;;6250953;22;20518;-91
2023/03/18 04:53:15;;;;;;;21.60;15.77;;;10.60;99.90;;;;;;6250266;22;20019;-91
2023/03/18 04:55:42;;;;;;;21.20;16.25;;;10.60;99.90;;;;;;6277374;22;20011;-91
2023/03/18 04:58:08;;;;;;;19.20;15.48;;;10.60;99.90;;;;;;6250757;22;20383;-90
2023/03/18 05:00:34;;;;;;;20.13;15.40;;;10.60;99.90;;;;;;6277334;22;20016;-89
2023/03/18 05:03:00;;;;;;;19.42;14.77;;;10.50;99.90;;;;;;6249889;22;20027;-90
2023/03/18 05:05:26;;;;;;;26.50;18.42;;;10.50;99.90;;;;;;6249352;22;20058;-91
2023/03/18 05:07:52;;;;;;;19.63;15.35;;;10.50;99.90;;;;;;6249839;22;20055;-91
2023/03/18 05:10:18;;;;;;;20.35;15.10;;;10.50;99.90;;;;;;6249302;22;20011;-89
2023/03/18 05:12:43;;;;;;;20.48;15.07;;;10.50;99.90;;;;;;6249617;22;20045;-90
2023/03/18 05:15:10;;;;;;;26.92;19.25;;;10.50;99.90;;;;;;6250075;22;20070;-90
2023/03/18 05:17:36;;;;;;;24.00;17.80;;;10.50;99.90;;;;;;6277034;22;20344;-90
2023/03/18 05:20:03;;;;;;;19.33;15.18;;;10.50;99.90;;;;;;6250340;22;20015;-90
2023/03/18 05:22:29;;;;;;;25.70;19.17;;;10.50;99.90;;;;;;6250127;22;20079;-91
2023/03/18 05:24:55;;;;;;;18.75;15.63;;;10.40;99.90;;;;;;6276977;22;20012;-91
2023/03/18 05:27:20;;;;;;;18.45;14.25;;;10.50;99.90;;;;;;6257030;22;20095;-89
2023/03/18 05:29:47;;;;;;;21.25;16.38;;;10.40;99.90;;;;;;6276161;22;20402;-90
2023/03/18 05:32:13;;;;;;;19.10;13.82;;;10.50;99.90;;;;;;6274753;22;20336;-91
2023/03/18 05:34:40;;;;;;;19.17;15.20;;;10.40;99.90;;;;;;6276302;22;20022;-90
2023/03/18 05:37:08;;;;;;;31.88;21.75;;;10.40;99.90;;;;;;6275484;22;20464;-90
2023/03/18 05:39:35;;;;;;;23.25;17.02;;;10.40;99.90;;;;;;6275566;22;20008;-91
2023/03/18 05:42:03;;;;;;;23.73;17.17;;;10.40;99.90;;;;;;6277882;22;20012;-93
2023/03/18 05:44:29;;;;;;;29.40;20.80;;;10.40;99.90;;;;;;6282043;22;20022;-93
2023/03/18 05:46:55;;;;;;;24.55;18.83;;;10.40;99.90;;;;;;6311853;22;20003;-94
2023/03/18 05:49:22;;;;;;;30.67;22.30;;;10.40;99.90;;;;;;6287709;22;20022;-95
2023/03/18 05:51:48;;;;;;;21.55;16.50;;;10.30;99.90;;;;;;6283810;22;20011;-94
2023/03/18 05:54:16;;;;;;;28.35;21.88;;;10.40;99.90;;;;;;6310162;22;20410;-88
2023/03/18 05:56:44;;;;;;;27.98;20.75;;;10.30;99.90;;;;;;6309062;22;20011;-90
2023/03/18 05:59:12;;;;;;;24.35;17.85;;;10.30;99.90;;;;;;6308443;22;20012;-91
2023/03/18 06:01:39;;;;;;;25.55;18.98;;;10.30;99.90;;;;;;6308370;22;20094;-93
2023/03/18 06:04:07;;;;;;;22.85;17.55;;;10.30;99.90;;;;;;6281032;22;20015;-91
2023/03/18 06:06:36;;;;;;;28.70;21.10;;;10.30;99.90;;;;;;6278610;22;20378;-91
2023/03/18 06:09:02;;;;;;;28.70;21.98;;;10.30;99.90;;;;;;6307909;22;20015;-91
2023/03/18 06:11:28;;;;;;;24.45;18.73;;;10.20;99.90;;;;;;6280185;22;20360;-91
2023/03/18 06:13:54;;;;;;;26.38;20.00;;;10.20;99.90;;;;;;6279958;22;20072;-91
2023/03/18 06:16:21;;;;;;;27.65;20.35;;;10.30;99.90;;;;;;6279681;22;20443;-92
2023/03/18 06:18:46;;;;;;;25.00;18.95;;;10.20;99.90;;;;;;6280384;22;20312;-92
2023/03/18 06:21:12;;;;;;;22.60;18.67;;;10.20;99.90;;;;;;6279662;22;20018;-91
2023/03/18 06:23:38;;;;;;;19.23;16.80;;;10.20;99.90;;;;;;6280186;22;20320;-91
2023/03/18 06:26:04;;;;;;;22.65;17.55;;;10.20;99.90;;;;;;6280212;22;20012;-91
2023/03/18 06:28:29;;;;;;;22.80;18.35;;;10.20;99.90;;;;;;6306329;22;20015;-91
2023/03/18 06:30:57;;;;;;;21.35;17.02;;;10.20;99.90;;;;;;6307617;22;20027;-91
2023/03/18 06:33:24;;;;;;;20.35;17.15;;;10.20;99.90;;;;;;6279653;22;20015;-90
2023/03/18 06:35:51;;;;;;;21.00;17.30;;;10.20;99.90;;;;;;6307411;22;20015;-91
2023/03/18 06:38:17;;;;;;;24.20;17.13;;;10.20;99.90;;;;;;6309269;22;20329;-91
2023/03/18 06:40:44;;;;;;;28.38;20.30;;;10.20;99.90;;;;;;6309006;22;20027;-91
2023/03/18 06:43:10;;;;;;;24.27;18.38;;;10.20;99.90;;;;;;6281519;22;20064;-91
2023/03/18 06:45:39;;;;;;;24.77;18.95;;;10.20;99.90;;;;;;6281759;22;20347;-88
2023/03/18 06:48:05;;;;;;;33.10;22.70;;;10.20;99.90;;;;;;6281183;22;20436;-91
2023/03/18 06:50:31;;;;;;;23.60;17.35;;;10.20;99.90;;;;;;6281133;22;20090;-90
2023/03/18 06:52:58;;;;;;;23.35;18.48;;;10.30;99.90;;;;;;6309592;22;20062;-91
2023/03/18 06:55:24;;;;;;;30.02;21.48;;;10.30;99.90;;;;;;6307938;22;20059;-90
2023/03/18 06:57:51;;;;;;;26.23;22.13;;;10.20;99.90;;;;;;6281698;22;20019;-91
2023/03/18 07:00:17;;;;;;;34.08;25.13;;;10.30;99.90;;;;;;6309842;22;20039;-91
2023/03/18 07:02:43;;;;;;;33.40;24.05;;;10.30;99.90;;;;;;6283025;22;20068;-90
2023/03/18 07:05:09;;;;;;;27.70;22.40;;;10.30;99.90;;;;;;6283814;22;20015;-91
2023/03/18 07:07:38;;;;;;;31.23;23.92;;;10.40;99.90;;;;;;6310555;22;20015;-91
2023/03/18 07:10:09;;;;;;;36.17;24.73;;;10.40;99.90;;;;;;6310168;22;20034;-90
2023/03/18 07:12:35;;;;;;;28.73;21.38;;;10.40;99.90;;;;;;6311086;22;20016;-93
2023/03/18 07:15:01;;;;;;;30.15;23.05;;;10.50;99.90;;;;;;6315000;22;20007;-93
2023/03/18 07:17:28;;;;;;;28.00;21.13;;;10.50;99.90;;;;;;6284943;22;20078;-94
2023/03/18 07:19:53;;;;;;;34.95;22.85;;;10.50;99.90;;;;;;6286776;22;20012;-93
2023/03/18 07:22:20;;;;;;;24.77;19.73;;;10.50;99.90;;;;;;6284594;22;20023;-94
2023/03/18 07:24:45;;;;;;;33.40;22.63;;;10.60;99.90;;;;;;6283579;22;20034;-92
2023/03/18 07:27:12;;;;;;;28.73;22.58;;;10.60;99.90;;;;;;6282347;22;20423;-94
2023/03/18 07:29:38;;;;;;;31.48;22.52;;;10.60;99.90;;;;;;6284027;22;20019;-94
2023/03/18 07:32:04;;;;;;;30.33;22.35;;;10.60;99.90;;;;;;6311186;22;20016;-94
2023/03/18 07:34:30;;;;;;;28.73;21.80;;;10.60;99.90;;;;;;6286000;22;20030;-93
2023/03/18 07:36:56;;;;;;;24.98;19.73;;;10.70;99.90;;;;;;6285779;22;20019;-95
2023/03/18 07:39:22;;;;;;;28.92;21.35;;;10.70;99.90;;;;;;6282573;22;20019;-93
2023/03/18 07:41:48;;;;;;;26.60;21.15;;;10.70;99.90;;;;;;6283260;22;20026;-91
2023/03/18 07:44:14;;;;;;;28.83;20.30;;;10.70;99.90;;;;;;6309946;22;20431;-92
2023/03/18 07:46:40;;;;;;;28.25;19.92;;;10.70;99.90;;;;;;6282905;22;20094;-93
2023/03/18 07:49:06;;;;;;;29.90;20.27;;;10.70;99.90;;;;;;6309903;22;20034;-92
2023/03/18 07:51:31;;;;;;;30.10;20.40;;;10.70;99.90;;;;;;6282171;22;20470;-93
2023/03/18 07:53:57;;;;;;;30.48;21.73;;;10.70;99.90;;;;;;6283665;22;20038;-93
2023/03/18 07:56:23;;;;;;;26.77;19.30;;;10.70;99.90;;;;;;6309550;22;20022;-92
2023/03/18 07:58:50;;;;;;;24.70;19.25;;;10.70;99.90;;;;;;6281793;22;20054;-93
2023/03/18 08:01:18;;;;;;;24.15;19.60;;;10.70;99.90;;;;;;6309251;22;20016;-92
2023/03/18 08:03:45;;;;;;;28.55;19.50;;;10.70;99.90;;;;;;6282546;22;20019;-91
2023/03/18 08:06:11;;;;;;;32.40;21.33;;;10.70;99.90;;;;;;6280783;22;20432;-92
2023/03/18 08:08:38;;;;;;;26.58;19.52;;;10.80;99.90;;;;;;6282222;22;20125;-91
2023/03/18 08:11:03;;;;;;;24.27;18.63;;;10.80;99.90;;;;;;6282440;22;20011;-92
2023/03/18 08:13:29;;;;;;;25.77;19.67;;;10.80;99.90;;;;;;6308880;22;20062;-92
2023/03/18 08:15:55;;;;;;;29.80;19.60;;;10.80;99.90;;;;;;6282554;22;20066;-92
2023/03/18 08:18:21;;;;;;;30.90;20.48;;;10.80;99.90;;;;;;6281618;22;20053;-90
2023/03/18 08:20:47;;;;;;;27.10;20.48;;;10.80;99.90;;;;;;6282536;22;20017;-93
2023/03/18 08:23:13;;;;;;;28.08;20.40;;;10.80;99.90;;;;;;6309703;22;20038;-90
2023/03/18 08:25:40;;;;;;;26.48;19.92;;;10.80;99.90;;;;;;6282995;22;20109;-92
2023/03/18 08:28:06;;;;;;;34.10;20.45;;;10.80;99.90;;;;;;6280252;22;20023;-91
2023/03/18 08:30:33;;;;;;;27.30;20.02;;;10.90;99.90;;;;;;6309237;22;20030;-91
2023/03/18 08:32:59;;;;;;;33.72;22.15;;;10.90;99.90;;;;;;6309340;22;20026;-92
2023/03/18 08:35:25;;;;;;;30.77;21.48;;;10.90;99.90;;;;;;6309537;22;20009;-94
2023/03/18 08:37:51;;;;;;;29.83;20.20;;;10.90;99.90;;;;;;6282932;22;20111;-94
2023/03/18 08:40:19;;;;;;;34.92;23.15;;;10.90;99.90;;;;;;6312421;22;20022;-95
2023/03/18 08:42:45;;;;;;;30.33;21.95;;;10.90;99.90;;;;;;6285668;22;20023;-93
2023/03/18 08:45:12;;;;;;;38.95;29.45;;;11.00;99.90;;;;;;6312996;22;20022;-94
2023/03/18 08:47:38;;;;;;;39.55;26.63;;;11.00;99.90;;;;;;6317722;22;20023;-95
2023/03/18 08:50:04;;;;;;;25.45;20.95;;;11.00;99.90;;;;;;6314302;22;20011;-93
2023/03/18 08:52:31;;;;;;;30.17;21.42;;;11.00;99.90;;;;;;6314081;22;20425;-95
2023/03/18 08:54:57;;;;;;;34.40;23.65;;;11.00;99.90;;;;;;6316486;22;20046;-95
2023/03/18 08:57:23;;;;;;;32.78;24.90;;;11.00;99.90;;;;;;6287696;22;20015;-95
2023/03/18 08:59:50;;;;;;;34.70;26.13;;;11.10;99.90;;;;;;6292061;22;20016;-96
2023/03/18 09:02:17;;;;;;;31.38;23.33;;;11.10;99.90;;;;;;6290971;22;20043;-96
2023/03/18 09:04:43;;;;;;;33.05;24.35;;;11.20;99.90;;;;;;6283651;22;20141;-91
2023/03/18 09:07:09;;;;;;;34.63;24.50;;;11.20;99.90;;;;;;6282807;22;20019;-94
2023/03/18 09:09:35;;;;;;;35.50;25.83;;;11.20;99.90;;;;;;6309378;22;20015;-94
2023/03/18 09:12:03;;;;;;;34.67;24.70;;;11.30;99.90;;;;;;6283443;22;20129;-94
2023/03/18 09:14:29;;;;;;;34.75;25.85;;;11.30;99.90;;;;;;6283122;22;20016;-95
2023/03/18 09:16:55;;;;;;;30.77;25.25;;;11.30;99.90;;;;;;6282400;22;20015;-93
2023/03/18 09:19:21;;;;;;;36.38;26.27;;;11.40;99.90;;;;;;6310236;22;20014;-94
2023/03/18 09:21:46;;;;;;;35.20;26.63;;;11.50;99.90;;;;;;6282932;22;20063;-93
2023/03/18 09:24:12;;;;;;;37.45;26.35;;;11.50;99.90;;;;;;6281500;22;20119;-93
2023/03/18 09:26:38;;;;;;;34.65;26.20;;;11.60;99.90;;;;;;6282223;22;20021;-94
2023/03/18 09:29:04;;;;;;;37.13;26.10;;;11.70;99.90;;;;;;6281772;22;20015;-92
2023/03/18 09:31:30;;;;;;;32.97;25.65;;;11.80;99.90;;;;;;6280375;22;20019;-93
2023/03/18 09:33:56;;;;;;;33.75;25.17;;;11.90;99.90;;;;;;6281440;22;20018;-94
2023/03/18 09:36:22;;;;;;;30.48;24.63;;;12.00;99.90;;;;;;6281627;22;20465;-92
2023/03/18 09:38:48;;;;;;;33.17;24.35;;;12.10;99.90;;;;;;6308790;22;20054;-92
2023/03/18 09:41:23;;;;;;;30.75;24.63;;;12.20;99.90;;;;;;6280804;22;20017;-91
2023/03/18 09:44:12;;;;;;;33.20;24.30;;;12.30;99.90;;;;;;6280311;22;20019;-92
2023/03/18 09:47:10;;;;;;;29.77;22.92;;;12.40;99.90;;;;;;6309049;22;20013;-93
2023/03/18 09:49:39;;;;;;;31.08;23.33;;;12.40;99.90;;;;;;6282094;22;20019;-92
2023/03/18 09:52:21;;;;;;;28.27;22.05;;;12.50;99.90;;;;;;6280474;22;20011;-92
2023/03/18 09:55:04;;;;;;;30.35;23.92;;;12.60;99.90;;;;;;6281686;22;20123;-91
2023/03/18 09:57:38;;;;;;;31.92;24.25;;;12.60;99.90;;;;;;6308235;22;20072;-91
2023/03/18 10:00:24;;;;;;;30.10;23.98;;;12.70;99.90;;;;;;6308507;22;20072;-91
2023/03/18 10:02:57;;;;;;;32.03;24.52;;;12.80;99.90;;;;;;6308577;22;20019;-90
2023/03/18 10:05:39;;;;;;;28.85;23.25;;;12.80;99.90;;;;;;6306899;22;20011;-89
2023/03/18 10:08:14;;;;;;;30.63;24.33;;;12.90;99.90;;;;;;6308424;22;20086;-90
2023/03/18 10:10:45;;;;;;;32.53;24.13;;;12.90;99.90;;;;;;6280452;22;20455;-90
2023/03/18 10:13:44;;;;;;;32.63;24.88;;;13.00;99.90;;;;;;6279601;22;20015;-90
2023/03/18 10:16:18;;;;;;;33.78;25.27;;;13.00;99.90;;;;;;6254758;22;20090;-90
2023/03/18 10:18:44;;;;;;;30.88;25.58;;;13.10;99.90;;;;;;6307493;22;20061;-90
2023/03/18 10:21:37;;;;;;;33.10;26.20;;;13.10;99.90;;;;;;6280319;22;20007;-90
2023/03/18 10:24:28;;;;;;;33.65;24.83;;;13.00;99.90;;;;;;6308204;22;20090;-90
2023/03/18 10:27:13;;;;;;;30.48;24.63;;;13.00;99.90;;;;;;6273274;22;20015;-90
2023/03/18 10:30:16;;;;;;;32.00;23.95;;;13.10;99.90;;;;;;6250173;22;20026;-90
2023/03/18 10:33:00;;;;;;;32.03;22.85;;;13.10;99.90;;;;;;6277096;22;20126;-90
2023/03/18 10:35:37;;;;;;;32.08;22.05;;;13.10;99.90;;;;;;6276864;22;20019;-90
2023/03/18 10:38:10;;;;;;;29.80;21.52;;;13.10;99.90;;;;;;6249632;22;20375;-90
2023/03/18 10:40:40;;;;;;;27.00;21.08;;;13.10;99.90;;;;;;6276264;22;20008;-90
2023/03/18 10:43:18;;;;;;;31.42;22.40;;;13.10;99.90;;;;;;6276873;22;20023;-89
2023/03/18 10:45:46;;;;;;;28.35;20.63;;;13.20;99.90;;;;;;6277186;22;20043;-90
2023/03/18 10:48:29;;;;;;;30.30;20.35;;;13.20;99.90;;;;;;6248521;22;20046;-90
2023/03/18 10:51:12;;;;;;;25.73;21.02;;;13.30;99.90;;;;;;6249973;22;20016;-91
2023/03/18 10:53:59;;;;;;;29.88;22.45;;;13.30;99.90;;;;;;6277179;22;20023;-90
2023/03/18 10:56:26;;;;;;;28.27;22.02;;;13.30;99.90;;;;;;6249277;22;20026;-89
2023/03/18 10:58:51;;;;;;;28.48;22.33;;;13.40;99.90;;;;;;6249542;22;20011;-90
2023/03/18 11:01:19;;;;;;;30.95;23.42;;;13.40;99.90;;;;;;6248365;22;20454;-89
2023/03/18 11:03:57;;;;;;;32.45;23.45;;;13.50;99.90;;;;;;6249320;22;20065;-90
2023/03/18 11:06:42;;;;;;;30.48;23.50;;;13.60;99.90;;;;;;6249248;22;20094;-89
2023/03/18 11:09:15;;;;;;;33.67;23.10;;;13.60;99.90;;;;;;6276041;22;20020;-90
2023/03/18 11:11:44;;;;;;;;;;;13.70;99.90;;;;;;6277472;22;20051;-89
2023/03/18 11:14:18;;;;;;;33.72;23.25;;;13.70;99.90;;;;;;6251889;22;19919;-90
2023/03/18 11:16:55;;;;;;;27.42;20.85;;;13.70;99.90;;;;;;6248651;22;20437;-90
2023/03/18 11:19:38;;;;;;;24.92;17.15;;;13.80;99.90;;;;;;6249332;22;20336;-90
2023/03/18 11:22:10;;;;;;;24.20;17.23;;;13.90;99.90;;;;;;6248368;22;20007;-90
2023/03/18 11:24:41;;;;;;;22.70;16.30;;;13.90;99.90;;;;;;6251777;22;20440;-92
2023/03/18 11:27:12;;;;;;;20.75;15.57;;;14.00;99.90;;;;;;6279919;22;20022;-92
2023/03/18 11:29:42;;;;;;;23.58;16.50;;;14.00;99.90;;;;;;6251485;22;20020;-90
2023/03/18 11:32:27;;;;;;;20.10;15.48;;;14.00;99.90;;;;;;6278851;22;20008;-93
2023/03/18 11:34:58;;;;;;;19.38;14.23;;;14.10;99.90;;;;;;6251531;22;20502;-91
2023/03/18 11:37:33;;;;;;;19.65;14.40;;;14.20;99.90;;;;;;6277381;22;20061;-91
2023/03/18 11:40:27;;;;;;;19.70;15.25;;;14.20;99.90;;;;;;6278878;22;20014;-91
2023/03/18 11:43:14;;;;;;;21.48;15.38;;;14.30;99.80;;;;;;6273078;22;20020;-93
2023/03/18 11:45:43;;;;;;;17.48;14.55;;;14.40;99.90;;;;;;6252098;22;20008;-92
2023/03/18 11:48:38;;;;;;;16.75;12.38;;;14.50;99.90;;;;;;6251911;22;20072;-91
2023/03/18 11:51:21;;;;;;;16.83;12.55;;;14.50;99.20;;;;;;6250342;22;20026;-91
2023/03/18 11:54:01;;;;;;;13.45;11.60;;;14.50;99.00;;;;;;6279554;22;20019;-91
2023/03/18 11:56:47;;;;;;;14.50;10.90;;;14.60;99.20;;;;;;6250806;22;20061;-91
2023/03/18 11:59:30;;;;;;;14.30;9.95;;;14.70;99.00;;;;;;6250153;22;20020;-90
2023/03/18 12:02:06;;;;;;;14.30;11.02;;;14.70;98.60;;;;;;6278248;22;20320;-91
2023/03/18 12:04:53;;;;;;;14.77;10.98;;;14.80;98.50;;;;;;6249695;22;20066;-91
2023/03/18 12:07:56;;;;;;;12.68;10.00;;;14.80;98.40;;;;;;6278733;22;20019;-91
2023/03/18 12:10:39;;;;;;;13.00;10.30;;;14.90;98.20;;;;;;6250841;22;20015;-90
2023/03/18 12:13:32;;;;;;;13.70;9.30;;;14.90;98.20;;;;;;6249777;22;20054;-92
2023/03/18 12:16:26;;;;;;;11.63;9.05;;;15.00;97.90;;;;;;6249030;22;20016;-91
2023/03/18 12:19:01;;;;;;;;;;;15.00;98.00;;;;;;6249049;22;20031;-91
2023/03/18 12:21:59;;;;;;;10.82;7.95;;;15.00;98.20;;;;;;6276171;22;19919;-91
2023/03/18 12:24:53;;;;;;;10.98;8.05;;;15.10;97.60;;;;;;6276117;22;20016;-90
2023/03/18 12:27:21;;;;;;;;;;;15.20;97.40;;;;;;6243279;23;20408;-90
2023/03/18 12:29:47;;;;;;;11.25;6.20;;;15.20;97.80;;;;;;6246027;22;19962;-90
2023/03/18 12:32:27;;;;;;;10.88;7.20;;;15.20;97.50;;;;;;6243448;23;20012;-91
2023/03/18 12:35:06;;;;;;;9.90;6.15;;;15.40;97.00;;;;;;6243666;23;20102;-90
2023/03/18 12:37:46;;;;;;;11.35;6.57;;;15.50;96.60;;;;;;6243546;23;20527;-91
2023/03/18 12:40:31;;;;;;;8.43;6.05;;;15.50;96.50;;;;;;6217519;23;20012;-91
2023/03/18 12:43:17;;;;;;;9.10;5.50;;;15.60;96.10;;;;;;6245486;23;20031;-90
2023/03/18 12:45:47;;;;;;;8.23;5.30;;;15.60;95.80;;;;;;6245264;23;20012;-90